Comer, Illinois
Current Conditions -  °F | °C
As of 12:15 AM on Saturday 29 Nov 2014 (Local Time) from K3LF Reporting Station
Clear Clear  
Wind Chill: 28°   Ceiling: Unl
Heat Index: 37°   Visibility: 10mi
Dew Point: 32°   Wind: 15mph
Humidity: 81%   Direction: 170°S
Pressure: 29.87"   Gusts: NA
Location:  39.2714°N, 89.9463°W
Report Text: K3LF 290615Z AUTO 17013KT 10SM CLR 03/00 A2987 RMK AO2 T00290000
Loading
Personal Weather Stations






























Interactive Weather Map New forecast layout! Learn more

10-Day Weather Forecast

Advertisements
Track Severe Weather on mobile